Terminal Aerodrome Forecast
Issued by NWS

Home | Current Version | Previous Version | Text Only | Print | Product List | Glossary On
Versions: 1 2 3 4 5 6 7 8 9 10 11 12 13
000
FTUS43 KFGF 222300
TAFBJI
TAF
KBJI 222335Z 2300/2324 11008KT P6SM -DZ OVC008
     FM230200 09007KT 2SM -RASN BR OVC004
     FM231100 04006KT 1 1/2SM -SN BR OVC003
     FM232000 34009KT 3SM -SN OVC007=

USA.gov is the U.S. government's official web portal to all federal, state and local government web resources and services.